• Join FlightAware (Why Join?)
  • Login
  • US Flag 
01:47AM EDT


 

Airport Tracker/Info


-or-


 

Live Flight TrackerFlight Track Log ✈ AAY826 ✈ 05-Jul-2014 ✈ KPIE - KLCK

Flight Track Log - Related Links

Times and Time Zones

All times are in EDT time to prevent confusion due to time zone crossing. See the AAY826 flight status page for this flight to view local times or setup timezone preferences in your user account.

Time Position Orientation Groundspeed Altitude Reporting Facility
EDT Latitude Longitude Course Direction KTS MPH feet Rate Location/Type
07:42AM 27.9000 -82.6833 181° South 176 203 700  Level Tampa TRACON
07:44AM 27.8056 -82.6861 181° South 233 268 4,400 1,980 Climbing Jacksonville Center
07:45AM 27.7911 -82.7367 252° West 244 281 5,800 1,920 Climbing Miami Center
07:46AM 27.8508 -82.7744 331° Northwest 283 326 8,000 2,340 Climbing Miami Center
07:47AM 27.9236 -82.7350 26° Northeast 290 334 10,600 2,220 Climbing Miami Center
07:48AM 28.0264 -82.7069 14° North 323 372 12,600 1,620 Climbing Miami Center
07:49AM 28.1314 -82.7011 North 362 417 13,900 1,620 Climbing Miami Center
07:50AM 28.2525 -82.6933 North 418 481 15,900 1,920 Climbing Miami Center
07:51AM 28.3761 -82.6847 North 442 509 17,900 2,100 Climbing Miami Center
07:52AM 28.5008 -82.6778 North 443 510 20,200 1,860 Climbing Miami Center
07:53AM 28.6250 -82.6706 North 453 521 21,700 1,740 Climbing Miami Center
07:54AM 28.7533 -82.6622 North 461 531 23,800 2,040 Climbing Miami Center
07:55AM 28.8797 -82.6553 North 460 529 25,900 1,080 Climbing Miami Center
07:56AM 29.0108 -82.6475 North 467 537 26,000 60 Climbing Miami Center
07:57AM 29.1461 -82.6378 North 483 556 26,100 1,020 Climbing Miami Center
07:58AM 29.2794 -82.6300 North 485 558 28,100 1,620 Climbing Miami Center
07:59AM 29.4081 -82.6208 North 476 548 29,400 1,080 Climbing Jacksonville Center
08:00AM 29.5417 -82.6133 North 471 542 30,300 720 Climbing Jacksonville Center
08:01AM 29.6753 -82.6033 North 476 548 30,900 960 Climbing Jacksonville Center
08:02AM 29.8111 -82.5933 North 481 554 32,300 960 Climbing Jacksonville Center
08:03AM 29.9425 -82.5858 North 476 548 32,900 300 Climbing Jacksonville Center
08:04AM 30.0825 -82.5828 North 465 535 33,000  Climbing Jacksonville Center
08:05AM 30.1950 -82.5731 North 454 522 33,000  Level Jacksonville Center
08:06AM 30.3225 -82.5678 North 454 522 33,000  Level Jacksonville Center
08:07AM 30.4478 -82.5600 North 454 522 33,000 -60 Level Jacksonville Center
08:08AM 30.5772 -82.5522 North 459 528 32,900 -60 Descending Jacksonville Center
08:09AM 30.7067 -82.5469 North 459 528 32,900  Level Jacksonville Center
08:10AM 30.8339 -82.5417 North 459 528 33,000  Climbing Jacksonville Center
08:11AM 30.9614 -82.5364 North 454 522 33,000  Level Jacksonville Center
08:12AM 31.0886 -82.5311 North 459 528 33,000  Level Jacksonville Center
08:13AM 31.2181 -82.5258 North 459 528 33,000  Level Jacksonville Center
08:14AM 31.3456 -82.5203 North 459 528 33,000  Level Jacksonville Center
08:15AM 31.4728 -82.5103 North 459 528 33,000  Level Jacksonville Center
08:16AM 31.6000 -82.4997 North 459 528 33,000  Level Jacksonville Center
08:17AM 31.7253 -82.4772 North 459 528 33,000  Level Jacksonville Center
08:18AM 31.8200 -82.4625 North 463 533 33,000  Level Atlanta Center
08:19AM 31.9283 -82.4483 North 463 533 33,000  Level Atlanta Center
08:20AM 32.0575 -82.4264 North 463 533 33,000  Level Atlanta Center
08:21AM 32.1844 -82.4069 North 458 527 33,000  Level Atlanta Center
08:22AM 32.3117 -82.3922 North 458 527 33,000  Level Atlanta Center
08:23AM 32.4344 -82.3678 10° North 458 527 33,000  Level Atlanta Center
08:24AM 32.5636 -82.3481 North 458 527 33,000  Level Atlanta Center
08:25AM 32.6906 -82.3283 North 463 533 33,000  Level Atlanta Center
08:26AM 32.8156 -82.3061 North 463 533 33,000  Level Atlanta Center
08:27AM 32.9447 -82.2864 North 463 533 33,000  Level Atlanta Center
08:28AM 33.0697 -82.2664 North 463 533 33,000  Level Atlanta Center
08:29AM 33.1947 -82.2442 North 463 533 33,000  Level Atlanta Center
08:30AM 33.3194 -82.2242 North 458 527 33,000  Level Atlanta Center
08:31AM 33.4467 -82.2039 North 458 527 33,000  Level Atlanta Center
08:32AM 33.5861 -82.1811 North 458 527 33,000  Level Atlanta Center
08:33AM 33.7108 -82.1583 North 458 527 33,000 240 Level Atlanta Center
08:34AM 33.8400 -82.1381 North 463 533 33,500 720 Climbing Atlanta Center
08:35AM 33.9692 -82.1150 North 463 533 34,500 720 Climbing Atlanta Center
08:36AM 34.0939 -82.0947 North 457 526 35,000 240 Climbing Atlanta Center
08:37AM 34.2231 -82.0717 North 462 532 35,000  Level Atlanta Center
08:38AM 34.3542 -82.0486 North 468 539 35,000  Level Atlanta Center
08:39AM 34.4831 -82.0253 North 468 539 35,000  Level Atlanta Center
08:40AM 34.6122 -82.0044 North 468 539 35,000  Level Atlanta Center
08:41AM 34.7308 -81.9814 North 468 539 35,000  Level Atlanta Center
08:42AM 34.8619 -81.9606 North 468 539 35,000  Level Atlanta Center
08:43AM 34.9931 -81.9394 North 468 539 35,000  Level Atlanta Center
08:44AM 35.1242 -81.9286 North 468 539 35,000  Level Atlanta Center
08:45AM 35.2536 -81.9228 North 463 533 35,000  Level Atlanta Center
08:46AM 35.3786 -81.9169 North 452 520 35,000  Level Atlanta Center
08:47AM 35.5036 -81.9086 North 452 520 35,000  Level Atlanta Center
08:48AM 35.6267 -81.9053 North 446 513 35,000  Level Atlanta Center
08:49AM 35.7517 -81.8994 North 441 507 35,000  Level Atlanta Center
08:50AM 35.8769 -81.8936 North 441 507 35,000  Level Atlanta Center
08:51AM 36.0122 -81.8850 North 441 507 35,000  Level Atlanta Center
08:52AM 36.1353 -81.8792 North 441 507 35,000  Level Atlanta Center
08:54AM 36.3750 -81.8658 North 445 512 35,000  Level Indianapolis Center
08:55AM 36.4939 -81.8606 North 435 501 35,000  Level Indianapolis Center
08:56AM 36.6136 -81.8544 North 433 498 35,000  Level Indianapolis Center
08:57AM 36.7336 -81.8483 North 433 498 35,000  Level Indianapolis Center
08:58AM 36.8544 -81.8419 North 433 498 35,000  Level Indianapolis Center
08:59AM 36.9731 -81.8375 North 432 497 35,000  Level Indianapolis Center
09:00AM 37.1094 -81.8297 North 426 490 35,000  Level Indianapolis Center
09:01AM 37.2278 -81.8244 North 425 489 35,000  Level Indianapolis Center
09:02AM 37.3472 -81.8186 North 426 490 35,000  Level Indianapolis Center
09:03AM 37.4689 -81.8131 North 431 496 35,000  Level Indianapolis Center
09:04AM 37.5861 -81.8386 350° North 427 491 35,000 -780 Level Indianapolis Center
09:05AM 37.7050 -81.8703 348° North 434 499 33,500 -1,680 Descending Indianapolis Center
09:06AM 37.8225 -81.8994 349° North 434 499 31,600 -1,260 Descending Indianapolis Center
09:07AM 37.9514 -81.9319 349° North 433 498 31,000 -300 Descending Indianapolis Center
09:08AM 38.0689 -81.9622 349° North 432 497 31,000  Level Indianapolis Center
09:09AM 38.1867 -81.9917 349° North 431 496 31,000  Level Indianapolis Center
09:10AM 38.3044 -82.0228 348° North 431 496 31,000  Level Indianapolis Center
09:11AM 38.4231 -82.0536 348° North 431 496 31,000 -600 Level Indianapolis Center
09:12AM 38.5411 -82.0844 348° North 431 496 29,800 -1,560 Descending Indianapolis Center
09:13AM 38.6589 -82.1144 349° North 430 495 27,900 -2,640 Descending Indianapolis Center
09:14AM 38.8025 -82.1525 348° North 431 496 24,400 -2,820 Descending Indianapolis Center
09:15AM 38.9272 -82.1839 349° North 446 513 22,100 -2,100 Descending Indianapolis Center
09:16AM 39.0472 -82.2147 349° North 444 511 20,100 -2,100 Descending Indianapolis Center
09:17AM 39.1578 -82.2444 348° North 415 478 17,900 -2,040 Descending Indianapolis Center
09:18AM 39.2611 -82.2711 349° North 389 448 16,000 -2,220 Descending Indianapolis Center
09:19AM 39.3878 -82.3092 347° North 364 419 13,100 -2,400 Descending Indianapolis Center
09:20AM 39.4675 -82.3281 350° North 361 415 11,200 -1,140 Descending Indianapolis Center
09:21AM 39.5525 -82.3694 339° North 346 398 11,000 -300 Descending Indianapolis Center
09:22AM 39.6069 -82.4661 306° West 338 389 10,600 -720 Descending Indianapolis Center
09:23AM 39.6489 -82.5536 302° West 291 335 9,600 -1,560 Descending Indianapolis Center
09:24AM 39.6861 -82.6331 301° West 263 303 7,500 -2,280 Descending Indianapolis Center
09:25AM 39.7314 -82.7050 309° West 260 299 5,000 -2,040 Descending Indianapolis Center
09:26AM 39.7892 -82.7828 314° West 254 292 3,400 -1,200 Descending Indianapolis Center
09:27AM 39.8353 -82.8231 326° Northwest 219 252 2,600 -840 Descending Indianapolis Center
09:28AM 39.8522 -82.8714 295° West 183 211 1,700 -780 Descending Indianapolis Center
09:29AM 39.8264 -82.9153 233° Southwest 158 182 1,100 -600 Descending Indianapolis Center
09:31AM 39.8138 -82.9278 293° West  Level Estimated